Time;durP1;ratioP1;P1;durP2;ratioP2;P2;SDS_P1;SDS_P2;PMS_P1;PMS_P2;Temp;Humidity;BMP_temperature;BMP_pressure;BME280_temperature;BME280_humidity;BME280_pressure;Samples;Min_cycle;Max_cycle;Signal;HPM_P1;HPM_P2
2022/01/26 00:00:29;;;;;;;0.20;0.20;;;;;;;18.63;39.57;102877.47;5117208;27;20329;-37
2022/01/26 00:05:52;;;;;;;0.30;0.30;;;;;;;18.62;39.63;102876.66;5098835;28;20043;-37
2022/01/26 00:08:23;;;;;;;0.30;0.30;;;;;;;18.62;39.54;102870.28;5123141;27;20065;-38
2022/01/26 00:10:48;;;;;;;0.30;0.30;;;;;;;18.62;39.65;102859.25;5124561;28;20504;-34
2022/01/26 00:13:14;;;;;;;0.30;0.30;;;;;;;18.62;39.78;102856.50;5127241;28;20055;-36
2022/01/26 00:15:39;;;;;;;0.20;0.20;;;;;;;18.61;39.68;102860.28;5124440;28;20039;-35
2022/01/26 00:18:05;;;;;;;0.20;0.20;;;;;;;18.62;39.74;102873.03;5123610;27;20096;-37
2022/01/26 00:20:40;;;;;;;0.20;0.20;;;;;;;18.62;39.65;102875.81;5125844;28;20043;-39
2022/01/26 00:23:32;;;;;;;0.20;0.20;;;;;;;18.61;39.61;102872.22;5088284;28;20050;-38
2022/01/26 00:26:13;;;;;;;0.20;0.20;;;;;;;18.63;39.64;102869.19;5110445;28;20051;-38
2022/01/26 00:29:11;;;;;;;0.20;0.20;;;;;;;18.61;39.76;102866.69;5108909;28;20232;-36
2022/01/26 00:39:39;;;;;;;0.20;0.20;;;;;;;18.61;39.83;102865.81;5110397;28;20047;-40
2022/01/26 00:42:05;;;;;;;0.28;0.28;;;;;;;18.60;39.82;102869.66;5124896;28;20160;-38
2022/01/26 00:44:39;;;;;;;0.20;0.20;;;;;;;18.61;39.72;102857.53;5126219;28;20493;-35
2022/01/26 00:47:05;;;;;;;0.20;0.20;;;;;;;18.59;39.52;102860.53;5124186;28;20045;-39
2022/01/26 00:49:31;;;;;;;0.30;0.30;;;;;;;18.59;39.85;102851.41;5108318;28;20062;-40
2022/01/26 00:51:56;;;;;;;0.20;0.20;;;;;;;18.60;39.59;102848.41;5104029;28;20523;-38
2022/01/26 00:54:22;;;;;;;0.20;0.20;;;;;;;18.60;39.75;102856.69;5117854;28;20506;-35
2022/01/26 00:56:48;;;;;;;0.30;0.30;;;;;;;18.59;39.81;102855.00;5121116;28;20062;-34
2022/01/26 00:59:14;;;;;;;0.20;0.20;;;;;;;18.58;39.79;102858.03;5121809;28;20035;-37
2022/01/26 01:01:39;;;;;;;0.25;0.25;;;;;;;18.58;39.73;102856.09;5120111;28;20054;-36
2022/01/26 01:04:06;;;;;;;0.25;0.25;;;;;;;18.58;39.68;102860.78;5125354;28;20480;-38
2022/01/26 01:06:41;;;;;;;0.28;0.28;;;;;;;18.58;39.72;102856.09;5123787;28;20545;-37
2022/01/26 01:09:06;;;;;;;0.20;0.20;;;;;;;18.58;39.69;102856.09;5108767;28;20111;-39
2022/01/26 01:11:32;;;;;;;0.20;0.20;;;;;;;18.58;39.83;102850.59;5123147;28;20047;-34
2022/01/26 01:13:58;;;;;;;0.30;0.30;;;;;;;18.58;39.92;102852.50;5125219;28;20054;-37
2022/01/26 01:16:24;;;;;;;0.30;0.30;;;;;;;18.56;39.84;102859.06;5123413;28;20078;-37
2022/01/26 01:22:05;;;;;;;0.30;0.30;;;;;;;18.58;39.74;102866.28;5108448;28;20066;-37
2022/01/26 01:30:02;;;;;;;0.30;0.30;;;;;;;18.56;40.07;102867.34;5108756;27;20039;-38
2022/01/26 01:32:37;;;;;;;0.20;0.20;;;;;;;18.55;39.83;102868.44;5121836;28;20039;-40
2022/01/26 01:35:07;;;;;;;0.20;0.20;;;;;;;18.56;39.77;102872.88;5123088;28;20047;-38
2022/01/26 01:37:33;;;;;;;0.28;0.28;;;;;;;18.56;39.73;102867.34;5123433;28;20378;-37
2022/01/26 01:39:59;;;;;;;0.30;0.30;;;;;;;18.57;40.04;102870.97;5124271;28;20043;-38
2022/01/26 01:42:25;;;;;;;0.20;0.20;;;;;;;18.56;39.77;102870.09;5123094;28;20047;-37
2022/01/26 01:44:51;;;;;;;0.20;0.20;;;;;;;18.56;39.76;102869.25;5081328;28;20429;-38
2022/01/26 01:47:17;;;;;;;0.20;0.20;;;;;;;18.56;39.75;102861.00;5123254;28;20051;-42
2022/01/26 01:49:42;;;;;;;0.20;0.20;;;;;;;18.55;39.89;102859.31;5123360;28;20039;-39
2022/01/26 01:52:13;;;;;;;0.30;0.30;;;;;;;18.55;39.76;102859.31;5122362;28;20058;-35
2022/01/26 01:54:41;;;;;;;0.20;0.20;;;;;;;18.55;39.91;102853.78;5122962;28;20051;-39
2022/01/26 01:57:06;;;;;;;0.30;0.30;;;;;;;18.54;40.00;102852.94;5106330;28;20055;-36
2022/01/26 01:59:33;;;;;;;0.20;0.20;;;;;;;18.55;39.87;102859.31;5124376;27;20152;-36
2022/01/26 02:02:00;;;;;;;0.20;0.20;;;;;;;18.54;40.00;102861.22;5104949;28;20046;-37
2022/01/26 02:04:26;;;;;;;0.20;0.20;;;;;;;18.55;39.95;102859.31;5107615;28;20043;-36
2022/01/26 02:06:51;;;;;;;0.30;0.30;;;;;;;18.55;40.08;102862.91;5104786;28;20402;-35
2022/01/26 02:09:17;;;;;;;0.30;0.30;;;;;;;18.55;39.91;102854.63;5124212;28;20406;-38
2022/01/26 02:11:46;;;;;;;0.30;0.30;;;;;;;18.54;39.98;102861.22;5125558;28;20126;-38
2022/01/26 02:14:22;;;;;;;0.28;0.28;;;;;;;18.54;39.80;102858.47;5096655;28;20035;-36
2022/01/26 02:50:30;;;;;;;0.20;0.20;;;;;;;18.52;39.86;102818.38;5099274;28;20071;-36
2022/01/26 02:53:15;;;;;;;0.30;0.30;;;;;;;18.52;39.88;102822.00;5103449;28;20066;-34
2022/01/26 02:55:44;;;;;;;0.30;0.30;;;;;;;18.51;40.05;102820.28;5124419;28;20043;-38
2022/01/26 02:58:42;;;;;;;0.28;0.28;;;;;;;18.52;40.04;102821.13;5123617;28;20830;-38
2022/01/26 03:01:23;;;;;;;0.30;0.30;;;;;;;18.51;40.05;102825.81;5107081;28;20039;-33
2022/01/26 03:03:50;;;;;;;0.30;0.30;;;;;;;18.52;40.14;102813.72;5108975;28;20067;-37
2022/01/26 03:06:22;;;;;;;0.30;0.30;;;;;;;18.51;40.01;102811.19;5123009;28;20051;-36
2022/01/26 03:08:59;;;;;;;0.20;0.20;;;;;;;18.51;40.09;102800.97;5106859;28;20062;-37
2022/01/26 03:11:28;;;;;;;0.30;0.30;;;;;;;18.51;39.99;102797.38;5121943;28;20052;-36
2022/01/26 03:14:03;;;;;;;0.30;0.30;;;;;;;18.51;40.14;102798.22;5106238;28;20049;-35
2022/01/26 03:16:42;;;;;;;0.30;0.30;;;;;;;18.51;40.13;102778.91;5106559;28;20112;-39
2022/01/26 03:19:36;;;;;;;0.30;0.30;;;;;;;18.51;40.02;102784.44;5125317;28;20478;-37
2022/01/26 03:32:55;;;;;;;0.20;0.20;;;;;;;18.50;39.99;102785.50;5134201;27;20392;-30
2022/01/26 03:38:08;;;;;;;0.30;0.30;;;;;;;18.51;40.01;102775.31;5131338;27;20108;-30
2022/01/26 03:40:36;;;;;;;0.20;0.20;;;;;;;18.51;39.91;102769.78;5152499;27;20046;-30
2022/01/26 03:43:02;;;;;;;0.30;0.30;;;;;;;18.51;40.23;102767.03;5146722;27;20052;-30
2022/01/26 03:45:28;;;;;;;0.30;0.30;;;;;;;18.51;40.08;102761.50;5130036;27;20047;-31
2022/01/26 03:47:55;;;;;;;0.30;0.30;;;;;;;18.50;40.23;102762.59;5149482;27;20462;-30
2022/01/26 03:50:22;;;;;;;0.30;0.30;;;;;;;18.51;40.17;102769.78;5131524;27;20043;-30
2022/01/26 03:52:48;;;;;;;0.30;0.30;;;;;;;18.50;40.07;102762.59;5129397;27;20078;-30
2022/01/26 03:55:13;;;;;;;0.30;0.30;;;;;;;18.51;39.81;102761.50;5149787;27;20044;-30
2022/01/26 03:57:39;;;;;;;0.30;0.30;;;;;;;18.51;40.13;102773.38;5149609;27;20141;-30
2022/01/26 04:00:07;;;;;;;0.30;0.30;;;;;;;18.50;40.15;102765.34;5149345;27;20057;-30
2022/01/26 04:02:34;;;;;;;0.30;0.30;;;;;;;18.50;40.23;102768.94;5130324;27;20047;-30
2022/01/26 04:05:02;;;;;;;0.30;0.30;;;;;;;18.52;40.08;102768.72;5150607;27;20133;-30
2022/01/26 04:07:28;;;;;;;0.20;0.20;;;;;;;18.51;40.05;102772.53;5130557;27;20043;-30
2022/01/26 04:10:01;;;;;;;0.28;0.28;;;;;;;18.50;40.10;102784.66;5146739;27;20065;-30
2022/01/26 04:12:27;;;;;;;0.30;0.30;;;;;;;18.49;40.15;102781.06;5150614;27;20050;-31
2022/01/26 04:14:58;;;;;;;0.20;0.20;;;;;;;18.48;40.14;102795.94;5149472;27;20047;-30
2022/01/26 04:17:24;;;;;;;0.30;0.30;;;;;;;18.50;39.97;102792.94;5148108;27;20445;-30
2022/01/26 04:19:55;;;;;;;0.30;0.30;;;;;;;18.49;40.12;102789.34;5133675;27;20048;-30
2022/01/26 04:22:24;;;;;;;0.20;0.20;;;;;;;18.50;40.03;102792.94;5128031;27;20109;-30
2022/01/26 04:24:52;;;;;;;0.20;0.20;;;;;;;18.49;39.99;102791.25;5128930;27;20051;-29
2022/01/26 04:27:25;;;;;;;0.20;0.20;;;;;;;18.49;40.17;102783.81;5125532;27;20047;-30
2022/01/26 04:29:51;;;;;;;0.20;0.20;;;;;;;18.51;40.13;102778.06;5124166;27;21074;-30
2022/01/26 04:32:17;;;;;;;0.20;0.20;;;;;;;18.49;40.09;102775.56;5128638;27;20092;-30
2022/01/26 04:34:45;;;;;;;0.30;0.30;;;;;;;18.49;40.17;102786.59;5127181;27;20081;-30
2022/01/26 04:37:25;;;;;;;0.20;0.20;;;;;;;18.48;40.15;102779.38;5130656;27;20041;-30
2022/01/26 04:39:57;;;;;;;0.30;0.30;;;;;;;18.49;40.26;102794.03;5122179;27;20058;-30
2022/01/26 04:42:42;;;;;;;0.20;0.20;;;;;;;18.49;40.33;102805.06;5111811;28;20044;-30
2022/01/26 04:45:10;;;;;;;0.20;0.20;;;;;;;18.49;40.14;102805.91;5114160;28;20036;-30
2022/01/26 04:47:36;;;;;;;0.20;0.20;;;;;;;18.49;40.12;102805.06;5115304;28;20478;-30
2022/01/26 04:50:04;;;;;;;0.25;0.25;;;;;;;18.49;40.09;102805.06;5096459;28;20048;-30
2022/01/26 04:52:29;;;;;;;0.20;0.20;;;;;;;18.49;40.12;102805.06;5112255;28;20043;-30
2022/01/26 04:54:55;;;;;;;0.20;0.20;;;;;;;18.47;40.15;102808.03;5114800;28;20088;-30
2022/01/26 04:57:21;;;;;;;0.30;0.30;;;;;;;18.47;40.24;102809.94;5111704;28;20074;-30
2022/01/26 04:59:46;;;;;;;0.20;0.20;;;;;;;18.48;40.29;102814.38;5116049;28;20039;-30
2022/01/26 05:02:12;;;;;;;0.20;0.20;;;;;;;18.47;40.15;102799.75;5114017;28;20084;-30
2022/01/26 05:04:38;;;;;;;0.30;0.30;;;;;;;18.49;40.21;102802.31;5099226;28;20046;-31
2022/01/26 05:07:04;;;;;;;0.20;0.20;;;;;;;18.48;40.21;102806.09;5115541;28;20051;-30
2022/01/26 05:09:29;;;;;;;0.20;0.20;;;;;;;18.47;40.24;102794.22;5114393;28;20044;-30
2022/01/26 05:11:56;;;;;;;0.20;0.20;;;;;;;18.48;40.32;102784.91;5115211;28;20413;-30
2022/01/26 05:14:22;;;;;;;0.30;0.30;;;;;;;18.48;40.18;102792.31;5114446;28;20044;-30
2022/01/26 05:16:48;;;;;;;0.30;0.30;;;;;;;18.48;40.29;102798.69;5094521;28;20164;-30
2022/01/26 05:19:13;;;;;;;0.30;0.30;;;;;;;18.48;40.26;102823.53;5114519;28;20176;-30
2022/01/26 05:21:41;;;;;;;0.20;0.20;;;;;;;18.47;40.32;102821.81;5113650;28;20048;-30
2022/01/26 05:24:07;;;;;;;0.30;0.30;;;;;;;18.47;40.28;102830.09;5095070;28;20284;-30
2022/01/26 05:26:32;;;;;;;0.30;0.30;;;;;;;18.49;40.18;102838.16;5111905;28;20221;-30
2022/01/26 05:28:58;;;;;;;0.30;0.30;;;;;;;18.48;40.33;102828.19;5116270;28;20051;-30
2022/01/26 05:31:24;;;;;;;0.30;0.30;;;;;;;18.46;40.25;102825.66;5091010;28;20040;-30
2022/01/26 05:33:50;;;;;;;0.20;0.20;;;;;;;18.48;40.18;102817.16;5112740;28;20052;-30
2022/01/26 05:36:16;;;;;;;0.30;0.30;;;;;;;18.49;40.15;102838.16;5111666;28;20079;-30
2022/01/26 05:38:42;;;;;;;0.22;0.22;;;;;;;18.47;40.16;102843.91;5094632;28;20055;-30
2022/01/26 05:41:09;;;;;;;0.20;0.20;;;;;;;18.48;40.15;102836.47;5095865;28;20058;-30
2022/01/26 05:43:34;;;;;;;0.30;0.30;;;;;;;18.47;40.34;102832.84;5111326;28;20049;-30
2022/01/26 05:46:06;;;;;;;0.20;0.20;;;;;;;18.47;40.23;102816.31;5095834;28;20082;-30
2022/01/26 05:48:34;;;;;;;0.20;0.20;;;;;;;18.47;40.33;102818.22;5100352;28;20048;-30
2022/01/26 05:51:08;;;;;;;0.40;0.40;;;;;;;18.46;40.25;102816.53;5112270;28;20050;-30
2022/01/26 05:53:35;;;;;;;0.30;0.30;;;;;;;18.47;40.32;102821.00;5109386;28;21156;-30
2022/01/26 05:56:01;;;;;;;0.30;0.30;;;;;;;18.47;40.27;102818.22;5095283;28;20107;-30
2022/01/26 05:58:27;;;;;;;0.22;0.22;;;;;;;18.49;40.27;102824.38;5112317;28;20508;-30
2022/01/26 06:00:53;;;;;;;0.20;0.20;;;;;;;18.47;40.41;102830.09;5078194;28;20508;-30
2022/01/26 06:03:18;;;;;;;0.20;0.20;;;;;;;18.48;40.26;102825.41;5094072;28;20043;-30
2022/01/26 06:05:44;;;;;;;0.28;0.28;;;;;;;18.47;40.21;102815.47;5113849;28;20047;-30
2022/01/26 06:08:10;;;;;;;0.25;0.25;;;;;;;18.47;40.26;102799.75;5114172;28;20096;-30
2022/01/26 06:10:36;;;;;;;0.30;0.30;;;;;;;18.46;40.09;102781.53;5109667;28;20048;-30
2022/01/26 06:13:01;;;;;;;0.20;0.20;;;;;;;18.47;40.43;102790.63;5113930;28;20047;-30
2022/01/26 06:15:28;;;;;;;0.20;0.20;;;;;;;18.47;40.13;102774.91;5092367;28;20074;-30
2022/01/26 06:17:53;;;;;;;0.30;0.30;;;;;;;18.46;40.23;102753.94;5113337;28;20083;-30
2022/01/26 06:20:19;;;;;;;0.20;0.20;;;;;;;18.47;40.31;102752.84;5089873;28;20050;-30
2022/01/26 06:22:44;;;;;;;0.20;0.20;;;;;;;18.47;40.27;102785.97;5113087;28;20467;-31
2022/01/26 06:25:10;;;;;;;0.20;0.20;;;;;;;18.47;40.45;102801.66;5109913;28;20048;-30
2022/01/26 06:27:37;;;;;;;0.30;0.30;;;;;;;18.47;40.59;102794.22;5110506;28;20062;-30
2022/01/26 06:30:04;;;;;;;0.20;0.20;;;;;;;18.47;40.33;102802.50;5111060;28;20047;-30
2022/01/26 06:32:30;;;;;;;0.30;0.30;;;;;;;18.46;40.32;102806.34;5092762;28;20046;-30
2022/01/26 06:34:56;;;;;;;0.30;0.30;;;;;;;18.47;40.38;102797.00;5094274;28;20100;-30
2022/01/26 06:37:22;;;;;;;0.30;0.30;;;;;;;18.46;40.33;102795.31;5110398;28;20051;-30
2022/01/26 06:39:47;;;;;;;0.30;0.30;;;;;;;18.47;40.53;102802.50;5091447;28;20047;-30
2022/01/26 06:42:16;;;;;;;0.30;0.30;;;;;;;18.46;40.53;102803.59;5088737;28;20402;-30
2022/01/26 06:44:53;;;;;;;0.30;0.30;;;;;;;18.47;40.35;102809.94;5107800;28;20494;-30
2022/01/26 06:47:35;;;;;;;0.30;0.30;;;;;;;18.47;40.43;102801.66;5096672;28;20541;-30
2022/01/26 06:50:02;;;;;;;0.30;0.30;;;;;;;18.46;40.34;102814.63;5104530;28;20058;-30
2022/01/26 06:52:28;;;;;;;0.30;0.30;;;;;;;18.45;40.35;102810.19;5107031;28;20057;-31
2022/01/26 06:54:53;;;;;;;0.30;0.30;;;;;;;18.47;40.37;102818.22;5104030;28;20043;-31
2022/01/26 06:57:19;;;;;;;0.30;0.30;;;;;;;18.47;40.27;102821.00;5102358;28;20047;-32
2022/01/26 06:59:45;;;;;;;0.30;0.30;;;;;;;18.46;40.20;102809.09;5103520;28;20370;-30
2022/01/26 07:02:11;;;;;;;0.30;0.30;;;;;;;18.47;40.38;102798.91;5106607;28;20170;-31
2022/01/26 07:04:37;;;;;;;0.30;0.30;;;;;;;18.47;40.45;102794.22;5109404;28;20759;-30
2022/01/26 07:07:03;;;;;;;0.20;0.20;;;;;;;18.46;40.30;102776.00;5104437;28;20047;-31
2022/01/26 07:09:28;;;;;;;0.30;0.30;;;;;;;18.46;40.33;102769.66;5103362;28;20478;-30
2022/01/26 07:11:54;;;;;;;0.30;0.30;;;;;;;18.46;40.35;102772.41;5101442;28;20073;-30
2022/01/26 07:19:46;;;;;;;0.30;0.30;;;;;;;18.47;40.17;102785.97;5102309;28;20536;-30
2022/01/26 07:19:54;;;;;;;0.30;0.30;;;;;;;18.46;40.19;102802.75;5085325;28;20650;-30
2022/01/26 07:22:20;;;;;;;0.20;0.20;;;;;;;18.46;40.27;102797.25;5097494;28;20043;-30
2022/01/26 07:24:46;;;;;;;0.25;0.25;;;;;;;18.46;40.26;102798.06;5099685;28;20121;-30
2022/01/26 07:27:11;;;;;;;0.30;0.30;;;;;;;18.46;40.42;102798.06;5084524;28;20296;-30
2022/01/26 07:29:37;;;;;;;0.20;0.20;;;;;;;18.47;40.23;102793.41;5094046;28;20048;-30
2022/01/26 07:32:05;;;;;;;0.30;0.30;;;;;;;18.46;40.36;102792.56;5096086;28;20043;-30
2022/01/26 07:34:32;;;;;;;0.20;0.20;;;;;;;18.45;40.46;102785.34;5095571;28;20051;-30
2022/01/26 07:37:02;;;;;;;0.30;0.30;;;;;;;18.46;40.34;102791.72;5083154;28;20552;-30
2022/01/26 07:39:41;;;;;;;0.30;0.30;;;;;;;18.46;40.30;102787.03;5098721;28;20051;-30
2022/01/26 07:42:08;;;;;;;0.30;0.30;;;;;;;18.46;40.30;102777.91;5082752;28;20043;-32
2022/01/26 07:44:34;;;;;;;0.30;0.30;;;;;;;18.46;40.23;102781.53;5090928;28;20501;-30
2022/01/26 07:46:59;;;;;;;0.30;0.30;;;;;;;18.46;40.30;102781.53;5095765;28;20051;-31
2022/01/26 07:49:25;;;;;;;0.30;0.30;;;;;;;18.45;40.35;102779.00;5097784;28;20731;-32
2022/01/26 07:51:51;;;;;;;0.30;0.30;;;;;;;18.47;40.35;102793.41;5096131;28;20833;-32
2022/01/26 07:54:18;;;;;;;0.30;0.30;;;;;;;18.46;40.19;102800.84;5097106;28;20102;-32
2022/01/26 07:56:45;;;;;;;0.30;0.30;;;;;;;18.45;40.32;102801.06;5098384;28;20071;-33
2022/01/26 07:59:11;;;;;;;0.30;0.30;;;;;;;18.47;40.37;102812.72;5096591;28;20458;-33
2022/01/26 08:01:37;;;;;;;0.30;0.30;;;;;;;18.47;40.28;102810.78;5073912;28;20077;-32
2022/01/26 08:04:04;;;;;;;0.30;0.30;;;;;;;18.46;40.30;102817.38;5093691;28;20054;-32
2022/01/26 08:06:35;;;;;;;0.30;0.30;;;;;;;18.44;40.22;102800.25;5091976;28;20475;-32
2022/01/26 08:09:00;;;;;;;0.30;0.30;;;;;;;18.45;40.17;102768.81;5095321;28;20051;-32
2022/01/26 08:11:26;;;;;;;0.30;0.30;;;;;;;18.24;36.90;102766.53;5101301;28;20047;-35
2022/01/26 08:13:52;;;;;;;0.30;0.30;;;;;;;18.38;38.52;102790.09;5086880;28;20917;-32
2022/01/26 08:16:18;;;;;;;0.30;0.30;;;;;;;18.44;38.76;102799.41;5093018;28;20050;-32
2022/01/26 08:18:43;;;;;;;0.30;0.30;;;;;;;18.47;38.90;102785.13;5098072;28;20390;-32
2022/01/26 08:21:10;;;;;;;0.30;0.30;;;;;;;18.47;39.02;102783.19;5096418;28;20113;-31
2022/01/26 08:23:37;;;;;;;0.30;0.30;;;;;;;18.48;38.98;102793.19;5098707;28;20134;-31
2022/01/26 08:26:03;;;;;;;0.20;0.20;;;;;;;18.50;39.25;102806.75;5098469;28;20047;-31
2022/01/26 08:28:36;;;;;;;0.30;0.30;;;;;;;18.50;39.11;102804.81;5081343;28;20055;-33
2022/01/26 08:31:01;;;;;;;0.30;0.30;;;;;;;18.52;39.39;102810.09;5104297;28;20130;-31
2022/01/26 08:33:27;;;;;;;0.30;0.30;;;;;;;18.52;39.46;102823.88;5096738;28;20078;-33
2022/01/26 08:35:53;;;;;;;0.30;0.30;;;;;;;18.52;39.11;102821.13;5097544;28;20047;-31
2022/01/26 08:38:26;;;;;;;0.30;0.30;;;;;;;18.55;39.23;102820.69;5101575;28;20047;-33
2022/01/26 08:40:51;;;;;;;0.30;0.30;;;;;;;18.32;35.28;102826.06;5092094;28;20043;-30
2022/01/26 08:43:17;;;;;;;0.30;0.30;;;;;;;18.47;38.01;102830.09;5097149;28;20088;-33
2022/01/26 08:45:43;;;;;;;0.30;0.30;;;;;;;18.58;38.06;102841.47;5101716;28;20097;-31
2022/01/26 08:48:09;;;;;;;0.30;0.30;;;;;;;18.60;38.20;102847.56;5100229;28;20662;-31
2022/01/26 08:50:35;;;;;;;0.20;0.20;;;;;;;18.61;38.34;102854.78;5099665;28;20054;-32
2022/01/26 08:53:00;;;;;;;0.20;0.20;;;;;;;18.62;38.44;102860.09;5080330;28;20466;-31
2022/01/26 08:55:26;;;;;;;0.30;0.30;;;;;;;18.63;38.43;102863.69;5103595;28;20370;-32
2022/01/26 08:57:52;;;;;;;0.20;0.20;;;;;;;18.63;38.78;102850.72;5104785;28;20219;-32
2022/01/26 09:00:18;;;;;;;0.20;0.20;;;;;;;18.64;38.71;102837.75;5110701;28;20047;-32
2022/01/26 09:02:44;;;;;;;0.30;0.30;;;;;;;18.64;38.90;102841.38;5104383;28;20180;-32
2022/01/26 09:05:10;;;;;;;0.30;0.30;;;;;;;18.65;38.71;102843.06;5109695;28;20035;-32
2022/01/26 09:07:36;;;;;;;0.20;0.20;;;;;;;18.66;38.66;102850.28;5104403;28;20043;-32
2022/01/26 09:10:04;;;;;;;0.30;0.30;;;;;;;18.68;38.92;102853.63;5084374;28;20067;-33
2022/01/26 09:12:31;;;;;;;0.30;0.30;;;;;;;18.69;38.90;102860.88;5081038;28;20286;-32
2022/01/26 09:15:00;;;;;;;0.30;0.30;;;;;;;18.69;38.88;102852.59;5083072;28;20072;-32
2022/01/26 09:17:30;;;;;;;0.20;0.20;;;;;;;18.71;38.92;102844.09;5105386;28;20059;-32
2022/01/26 09:20:02;;;;;;;0.30;0.30;;;;;;;18.73;38.96;102847.44;5101493;28;20051;-32
2022/01/26 09:22:28;;;;;;;0.30;0.30;;;;;;;18.72;38.77;102851.28;5083679;28;20050;-32
2022/01/26 09:24:53;;;;;;;0.30;0.30;;;;;;;18.73;38.86;102852.97;5106746;28;20050;-32
2022/01/26 09:27:19;;;;;;;0.20;0.20;;;;;;;18.75;38.77;102848.91;5101320;28;20770;-31
2022/01/26 09:29:46;;;;;;;0.30;0.30;;;;;;;18.76;38.95;102849.75;5082148;28;20055;-32
2022/01/26 09:32:13;;;;;;;0.30;0.30;;;;;;;18.76;38.80;102856.13;5085322;28;20053;-32
2022/01/26 09:34:40;;;;;;;0.30;0.30;;;;;;;18.79;38.89;102860.34;5100495;28;20062;-33
2022/01/26 09:37:09;;;;;;;0.30;0.30;;;;;;;18.79;38.82;102863.09;5087772;28;20132;-32
2022/01/26 09:39:34;;;;;;;0.30;0.30;;;;;;;18.80;38.86;102862.84;5086285;28;20095;-32
2022/01/26 09:42:01;;;;;;;0.30;0.30;;;;;;;18.81;39.01;102858.19;5103727;28;20055;-32
2022/01/26 09:44:29;;;;;;;0.20;0.20;;;;;;;18.83;38.75;102860.72;5105786;28;20557;-32
2022/01/26 09:46:55;;;;;;;0.20;0.20;;;;;;;18.83;38.75;102871.78;5086585;28;20557;-32
2022/01/26 09:49:21;;;;;;;0.30;0.30;;;;;;;18.84;38.73;102859.66;5078150;28;20047;-34
2022/01/26 09:51:49;;;;;;;0.30;0.30;;;;;;;18.83;38.64;102869.84;5096977;28;20040;-32
2022/01/26 09:54:17;;;;;;;0.30;0.30;;;;;;;18.83;38.69;102869.84;5082081;28;20059;-32
2022/01/26 09:56:46;;;;;;;0.20;0.20;;;;;;;18.83;38.88;102867.09;5084926;28;20039;-32
2022/01/26 09:59:13;;;;;;;0.30;0.30;;;;;;;18.84;38.95;102859.66;5104816;28;20416;-32
2022/01/26 10:01:43;;;;;;;0.30;0.30;;;;;;;18.83;38.73;102860.72;5079887;28;20039;-33
2022/01/26 10:04:36;;;;;;;0.30;0.30;;;;;;;18.84;38.98;102862.41;5108981;28;20047;-32
2022/01/26 10:07:20;;;;;;;0.20;0.20;;;;;;;18.83;39.00;102855.22;5085340;28;20078;-34
2022/01/26 10:15:37;;;;;;;0.30;0.30;;;;;;;18.81;39.01;102841.63;5075765;28;20518;-32
2022/01/26 10:18:15;;;;;;;0.30;0.30;;;;;;;18.82;39.05;102851.56;5107521;28;20533;-32
2022/01/26 10:20:53;;;;;;;0.30;0.30;;;;;;;18.82;38.91;102847.97;5085726;28;20035;-33
2022/01/26 10:23:21;;;;;;;0.30;0.30;;;;;;;18.82;38.85;102842.44;5077105;28;20205;-32
2022/01/26 10:29:01;;;;;;;0.30;0.30;;;;;;;18.80;39.07;102843.53;5144080;27;20209;-35
2022/01/26 10:31:29;;;;;;;0.30;0.30;;;;;;;18.81;39.08;102844.38;5112139;27;20485;-39
2022/01/26 10:34:15;;;;;;;0.30;0.30;;;;;;;18.83;38.92;102838.66;5108365;27;20504;-35
2022/01/26 10:39:31;;;;;;;0.30;0.30;;;;;;;18.82;39.13;102839.69;5138167;27;20661;-39
2022/01/26 10:42:01;;;;;;;0.40;0.40;;;;;;;18.82;38.98;102848.81;5137458;27;20042;-39
2022/01/26 10:44:33;;;;;;;0.30;0.30;;;;;;;18.81;39.21;102855.41;5122569;27;20053;-42
2022/01/26 10:47:00;;;;;;;0.30;0.30;;;;;;;18.83;39.07;102852.44;5121961;27;20087;-39
2022/01/26 10:50:32;;;;;;;0.20;0.20;;;;;;;18.82;39.00;102842.44;5144670;27;20050;-40
2022/01/26 10:52:35;;;;;;;0.30;0.30;;;;;;;18.81;38.82;102827.81;5111767;27;20047;-40
2022/01/26 10:55:01;;;;;;;0.20;0.20;;;;;;;18.80;39.03;102821.44;5126987;27;20141;-40
2022/01/26 10:57:28;;;;;;;0.30;0.30;;;;;;;18.80;39.25;102826.97;5143474;27;20074;-40
2022/01/26 10:59:54;;;;;;;0.30;0.30;;;;;;;18.82;39.17;102845.22;5142768;27;20319;-38
2022/01/26 11:02:26;;;;;;;0.20;0.20;;;;;;;18.79;39.15;102850.13;5140675;27;20061;-39
2022/01/26 11:04:52;;;;;;;0.30;0.30;;;;;;;18.81;39.23;102855.41;5126359;27;20046;-38
2022/01/26 11:07:18;;;;;;;0.25;0.25;;;;;;;18.80;39.09;102845.47;5144950;27;20046;-40
2022/01/26 11:09:46;;;;;;;0.30;0.30;;;;;;;18.79;39.21;102843.78;5145735;27;20035;-40
2022/01/26 11:12:13;;;;;;;0.20;0.20;;;;;;;18.80;39.18;102845.47;5113825;27;20533;-36
2022/01/26 11:14:47;;;;;;;0.30;0.30;;;;;;;18.81;39.15;102852.66;5140165;27;20090;-38
2022/01/26 11:17:32;;;;;;;0.30;0.30;;;;;;;18.79;39.10;102849.31;5140412;27;20441;-40
2022/01/26 11:19:59;;;;;;;0.35;0.35;;;;;;;18.81;39.26;102852.66;5125350;27;20685;-39
2022/01/26 11:22:28;;;;;;;0.30;0.30;;;;;;;18.78;39.01;102856.75;5121907;27;20047;-37
2022/01/26 11:24:55;;;;;;;0.30;0.30;;;;;;;18.79;38.99;102838.25;5137449;27;20286;-39
2022/01/26 11:27:21;;;;;;;0.30;0.30;;;;;;;18.79;39.29;102844.63;5119829;27;20054;-38
2022/01/26 11:29:52;;;;;;;0.30;0.30;;;;;;;18.78;39.24;102861.38;5123593;27;20045;-38
2022/01/26 11:32:26;;;;;;;0.30;0.30;;;;;;;18.76;39.08;102867.16;5140711;27;20111;-39
2022/01/26 11:34:52;;;;;;;0.30;0.30;;;;;;;18.77;39.02;102857.78;5134024;27;20039;-40
2022/01/26 11:37:27;;;;;;;0.30;0.30;;;;;;;18.77;39.31;102857.78;5142505;27;20075;-40
2022/01/26 11:45:34;;;;;;;0.28;0.28;;;;;;;18.76;39.20;102858.88;5115036;27;20098;-39
2022/01/26 11:48:21;;;;;;;0.30;0.30;;;;;;;18.76;39.13;102849.75;5139868;27;20310;-40
2022/01/26 11:50:57;;;;;;;0.30;0.30;;;;;;;18.75;39.28;102853.59;5114399;27;20047;-41
2022/01/26 11:53:24;;;;;;;0.30;0.30;;;;;;;18.76;39.22;102847.84;5126825;27;20472;-38
2022/01/26 11:55:57;;;;;;;0.20;0.20;;;;;;;18.75;39.27;102846.16;5126820;27;20054;-40
2022/01/26 11:58:43;;;;;;;0.30;0.30;;;;;;;18.75;39.29;102840.63;5135138;27;20058;-40
2022/01/26 12:01:23;;;;;;;0.30;0.30;;;;;;;18.74;39.38;102836.19;5115300;27;20094;-40
2022/01/26 12:04:00;;;;;;;0.20;0.20;;;;;;;18.74;39.25;102838.13;5131172;27;20046;-37
2022/01/26 12:06:30;;;;;;;0.25;0.25;;;;;;;18.74;39.40;102838.13;5114940;27;20129;-39
2022/01/26 12:08:58;;;;;;;0.20;0.20;;;;;;;18.75;39.15;102839.78;5136687;27;20055;-38
2022/01/26 12:11:24;;;;;;;0.20;0.20;;;;;;;18.74;39.05;102838.97;5109147;27;20053;-39
2022/01/26 12:13:59;;;;;;;0.30;0.30;;;;;;;18.73;39.44;102840.00;5126542;27;20051;-39
2022/01/26 12:16:34;;;;;;;0.20;0.20;;;;;;;18.68;39.36;102839.84;5107912;27;20047;-41
2022/01/26 12:19:23;;;;;;;0.30;0.30;;;;;;;18.77;39.17;102832.94;5123143;27;20098;-38
2022/01/26 12:38:49;;;;;;;0.30;0.30;;;;;;;18.85;39.43;102812.47;5103249;27;19927;-37
2022/01/26 12:41:28;;;;;;;0.30;0.30;;;;;;;18.86;39.30;102805.88;5113124;27;20046;-43
2022/01/26 12:43:57;;;;;;;0.30;0.30;;;;;;;18.86;39.36;102807.78;5126467;27;20138;-39
2022/01/26 12:46:24;;;;;;;;;;;;;;;18.86;39.38;102805.88;5105851;27;20079;-38
2022/01/26 12:48:55;;;;;;;0.20;0.20;;;;;;;18.85;39.38;102806.94;5113697;27;19949;-36
2022/01/26 12:51:22;;;;;;;0.30;0.30;;;;;;;18.87;39.41;102803.94;5106426;27;20946;-37
2022/01/26 12:53:52;;;;;;;0.30;0.30;;;;;;;18.87;39.23;102798.41;5106855;27;20070;-39
2022/01/26 12:56:18;;;;;;;0.20;0.20;;;;;;;18.89;39.19;102802.66;5129368;27;20134;-38
2022/01/26 12:58:43;;;;;;;0.30;0.30;;;;;;;18.89;39.34;102810.94;5112630;27;20043;-41
2022/01/26 13:01:14;;;;;;;0.30;0.30;;;;;;;18.91;39.27;102811.56;5125768;27;20043;-36
2022/01/26 13:03:40;;;;;;;0.30;0.30;;;;;;;18.91;39.44;102811.56;5108869;27;20038;-39
2022/01/26 13:06:12;;;;;;;0.20;0.20;;;;;;;18.93;39.13;102817.66;5095602;27;20058;-40
2022/01/26 13:08:41;;;;;;;0.20;0.20;;;;;;;18.95;39.34;102814.66;5130156;27;20039;-36
2022/01/26 13:11:06;;;;;;;0.20;0.20;;;;;;;18.95;39.15;102814.66;5111148;27;20102;-39
2022/01/26 13:13:33;;;;;;;0.20;0.20;;;;;;;18.96;39.08;102797.88;5122000;27;20055;-38
2022/01/26 13:16:09;;;;;;;0.30;0.30;;;;;;;18.96;39.45;102800.66;5109375;27;20441;-38